createdAt,value
2023-01-18T00:00:15.025Z,6.23
2023-01-18T00:03:18.816Z,10.23
2023-01-18T00:06:22.581Z,6.90
2023-01-18T00:09:27.953Z,6.93
2023-01-18T00:12:31.836Z,7.37
2023-01-18T00:15:36.960Z,5.53
2023-01-18T00:18:41.279Z,5.57
2023-01-18T00:21:45.078Z,4.90
2023-01-18T00:24:50.148Z,5.30
2023-01-18T00:27:55.381Z,3.63
2023-01-18T00:30:59.239Z,3.07
2023-01-18T00:34:03.482Z,3.80
2023-01-18T00:37:07.279Z,3.13
2023-01-18T00:40:13.167Z,2.53
2023-01-18T00:43:33.911Z,3.83
2023-01-18T00:46:37.821Z,2.70
2023-01-18T00:49:41.334Z,3.30
2023-01-18T00:52:46.598Z,2.10
2023-01-18T00:55:51.631Z,2.53
2023-01-18T00:58:55.167Z,2.67
2023-01-18T01:01:58.884Z,2.47
2023-01-18T01:05:24.972Z,2.13
2023-01-18T01:08:28.687Z,2.73
2023-01-18T01:11:33.813Z,3.07
2023-01-18T01:14:56.752Z,2.97
2023-01-18T01:18:17.827Z,3.17
2023-01-18T01:21:39.131Z,2.57
2023-01-18T01:25:00.168Z,2.40
2023-01-18T01:28:05.279Z,2.93
2023-01-18T01:31:10.624Z,2.70
2023-01-18T01:34:14.482Z,2.90
2023-01-18T01:37:18.073Z,2.53
2023-01-18T01:40:21.735Z,3.57
2023-01-18T01:43:42.645Z,2.70
2023-01-18T01:46:50.400Z,4.00
2023-01-18T01:49:59.751Z,2.70
2023-01-18T01:53:04.025Z,2.77
2023-01-18T01:56:08.981Z,2.50
2023-01-18T01:59:15.755Z,2.90
2023-01-18T02:02:19.766Z,2.53
2023-01-18T02:05:24.506Z,2.87
2023-01-18T02:08:30.034Z,2.40
2023-01-18T02:11:33.860Z,3.00
2023-01-18T02:14:39.467Z,2.60
2023-01-18T02:18:01.969Z,3.40
2023-01-18T02:21:18.284Z,4.03
2023-01-18T02:25:05.229Z,2.90
2023-01-18T02:28:15.863Z,2.60
2023-01-18T02:31:21.045Z,3.10
2023-01-18T02:34:33.596Z,4.37
2023-01-18T02:37:45.362Z,7.67
2023-01-18T02:41:02.071Z,4.53
2023-01-18T02:44:24.279Z,4.33
2023-01-18T02:47:30.054Z,3.60
2023-01-18T02:50:33.638Z,3.87
2023-01-18T02:53:40.151Z,2.50
2023-01-18T02:56:48.717Z,3.23
2023-01-18T02:59:57.040Z,3.83
2023-01-18T03:03:01.504Z,15.27
2023-01-18T03:06:09.370Z,6.57
2023-01-18T03:09:21.745Z,5.17
2023-01-18T03:12:28.652Z,3.90
2023-01-18T03:15:44.887Z,52.47
2023-01-18T03:19:04.364Z,25.03
2023-01-18T03:22:08.084Z,4.37
2023-01-18T03:25:13.798Z,9.23
2023-01-18T03:28:38.478Z,5.30
2023-01-18T03:32:05.684Z,5.00
2023-01-18T03:35:14.291Z,4.83
2023-01-18T03:38:19.158Z,3.27
2023-01-18T03:41:26.339Z,3.93
2023-01-18T03:44:36.432Z,3.37
2023-01-18T03:47:41.717Z,4.87
2023-01-18T03:50:50.866Z,9.87
2023-01-18T03:54:02.770Z,6.27
2023-01-18T03:57:12.772Z,24.70
2023-01-18T04:00:17.726Z,6.93
2023-01-18T04:03:22.817Z,3.27
2023-01-18T04:06:26.729Z,3.97
2023-01-18T04:09:30.586Z,7.93
2023-01-18T04:12:35.241Z,4.60
2023-01-18T04:15:38.995Z,3.67
2023-01-18T04:18:44.073Z,3.67
2023-01-18T04:21:47.633Z,5.43
2023-01-18T04:24:51.339Z,4.40
2023-01-18T04:27:54.951Z,3.67
2023-01-18T04:30:58.806Z,3.07
2023-01-18T04:34:03.742Z,4.13
2023-01-18T04:37:07.377Z,3.90
2023-01-18T04:40:12.000Z,4.00
2023-01-18T04:43:15.534Z,7.47
2023-01-18T04:46:19.337Z,7.27
2023-01-18T04:49:24.484Z,7.37
2023-01-18T04:52:32.331Z,5.87
2023-01-18T04:55:35.849Z,5.63
2023-01-18T04:58:39.929Z,5.87
2023-01-18T05:01:43.750Z,5.80
2023-01-18T05:04:49.004Z,5.70
2023-01-18T05:07:52.712Z,7.00
2023-01-18T05:11:02.688Z,4.10
2023-01-18T05:14:06.333Z,4.77
2023-01-18T05:17:10.266Z,4.10
2023-01-18T05:20:15.617Z,4.63
2023-01-18T05:23:19.459Z,5.53
2023-01-18T05:26:25.842Z,4.67
2023-01-18T05:29:29.370Z,4.43
2023-01-18T05:32:33.039Z,4.17
2023-01-18T05:35:38.295Z,9.20
2023-01-18T05:38:42.071Z,10.03
2023-01-18T05:41:46.064Z,4.07
2023-01-18T05:44:49.781Z,5.80
2023-01-18T05:47:56.019Z,4.97
2023-01-18T05:51:01.012Z,5.47
2023-01-18T05:54:04.666Z,5.53
2023-01-18T05:57:08.478Z,5.67
2023-01-18T06:00:13.287Z,5.93
2023-01-18T06:03:17.099Z,4.80
2023-01-18T06:06:22.478Z,8.40
2023-01-18T06:09:26.259Z,8.17
2023-01-18T06:12:30.005Z,9.20
2023-01-18T06:15:34.069Z,6.70
2023-01-18T06:18:39.841Z,5.80
2023-01-18T06:21:45.118Z,5.37
2023-01-18T06:24:48.941Z,5.80
2023-01-18T06:27:52.934Z,6.30
2023-01-18T06:30:57.805Z,5.13
2023-01-18T06:34:07.081Z,6.03
2023-01-18T06:37:12.958Z,5.60
2023-01-18T06:40:17.918Z,6.20
2023-01-18T06:43:22.090Z,7.67
2023-01-18T06:46:25.921Z,6.50
2023-01-18T06:49:30.295Z,6.00
2023-01-18T06:52:35.559Z,6.00
2023-01-18T06:55:39.419Z,6.87
2023-01-18T06:58:43.558Z,5.67
2023-01-18T07:01:48.056Z,4.97
2023-01-18T07:04:51.899Z,6.67
2023-01-18T07:07:57.179Z,5.80
2023-01-18T07:11:05.054Z,6.93
2023-01-18T07:14:08.858Z,6.70
2023-01-18T07:17:12.699Z,6.70
2023-01-18T07:20:17.127Z,7.50
2023-01-18T07:23:22.300Z,6.10
2023-01-18T07:26:27.100Z,7.93
2023-01-18T07:29:31.060Z,7.40
2023-01-18T07:32:34.799Z,6.80
2023-01-18T07:35:38.760Z,6.80
2023-01-18T07:38:44.351Z,5.57
2023-01-18T07:41:48.320Z,14.23
2023-01-18T07:44:54.538Z,34.40
2023-01-18T07:47:58.438Z,10.80
2023-01-18T07:51:04.141Z,7.03
2023-01-18T07:54:09.560Z,10.27
2023-01-18T07:57:13.622Z,82.93
2023-01-18T08:00:17.684Z,21.70
2023-01-18T08:03:21.941Z,12.70
2023-01-18T08:06:27.477Z,8.97
2023-01-18T08:09:34.164Z,12.23
2023-01-18T08:12:38.061Z,23.33
2023-01-18T08:15:41.940Z,17.43
2023-01-18T08:18:46.398Z,27.13
2023-01-18T08:21:50.241Z,15.07
2023-01-18T08:24:55.520Z,9.73
2023-01-18T08:28:00.262Z,11.23
2023-01-18T08:31:12.658Z,8.50
2023-01-18T08:34:16.482Z,7.50
2023-01-18T08:37:20.446Z,4.70
2023-01-18T08:40:27.496Z,6.07
2023-01-18T08:43:31.504Z,4.20
2023-01-18T08:46:36.515Z,5.50
2023-01-18T08:49:40.259Z,5.37
2023-01-18T08:52:44.079Z,3.57
2023-01-18T08:55:49.839Z,7.80
2023-01-18T08:58:53.917Z,5.53
2023-01-18T09:01:58.963Z,7.37
2023-01-18T09:05:02.898Z,4.90
2023-01-18T09:08:07.200Z,4.90
2023-01-18T09:11:12.607Z,4.70
2023-01-18T09:14:16.952Z,4.75
2023-01-18T09:17:21.479Z,4.00
2023-01-18T09:20:25.718Z,4.10
2023-01-18T09:23:29.823Z,4.43
2023-01-18T09:26:35.166Z,4.10
2023-01-18T09:29:38.979Z,3.15
2023-01-18T09:32:42.872Z,2.55
2023-01-18T09:35:48.026Z,3.35
2023-01-18T09:38:51.801Z,3.95
2023-01-18T09:42:00.156Z,3.17
2023-01-18T09:45:05.079Z,3.47
2023-01-18T09:48:17.798Z,3.28
2023-01-18T09:51:24.487Z,2.75
2023-01-18T09:54:40.326Z,3.50
2023-01-18T09:58:00.526Z,3.10
2023-01-18T10:01:08.418Z,2.30
2023-01-18T10:04:18.701Z,2.80
2023-01-18T10:07:24.808Z,2.83
2023-01-18T10:10:29.562Z,2.65
2023-01-18T10:13:46.979Z,2.53
2023-01-18T10:16:57.064Z,2.15
2023-01-18T10:20:01.905Z,2.08
2023-01-18T10:23:16.240Z,2.95
2023-01-18T10:26:27.326Z,2.10
2023-01-18T10:29:50.684Z,2.47
2023-01-18T10:32:58.260Z,2.10
2023-01-18T10:36:09.607Z,2.70
2023-01-18T10:39:31.286Z,2.90
2023-01-18T10:42:41.240Z,3.42
2023-01-18T10:45:46.769Z,2.75
2023-01-18T10:48:51.922Z,2.85
2023-01-18T10:51:55.719Z,2.58
2023-01-18T10:55:01.859Z,2.20
2023-01-18T10:58:05.779Z,2.00
2023-01-18T11:01:18.011Z,1.60
2023-01-18T11:04:24.448Z,2.03
2023-01-18T11:07:29.679Z,2.42
2023-01-18T11:10:33.779Z,1.65
2023-01-18T11:13:43.884Z,2.15
2023-01-18T11:16:59.502Z,2.17
2023-01-18T11:20:07.825Z,2.10
2023-01-18T11:23:21.301Z,1.77
2023-01-18T11:26:25.559Z,2.33
2023-01-18T11:29:31.639Z,2.08
2023-01-18T11:32:38.221Z,2.40
2023-01-18T11:35:42.039Z,2.40
2023-01-18T11:38:45.939Z,2.67
2023-01-18T11:41:50.206Z,2.10
2023-01-18T11:45:05.943Z,2.30
2023-01-18T11:48:16.419Z,2.58
2023-01-18T11:51:28.059Z,2.03
2023-01-18T11:54:38.488Z,2.80
2023-01-18T11:57:43.856Z,2.33
2023-01-18T12:00:59.656Z,2.53
2023-01-18T12:04:12.660Z,2.28
2023-01-18T12:07:31.926Z,2.97
2023-01-18T12:10:43.759Z,2.70
2023-01-18T12:14:01.134Z,3.67
2023-01-18T12:17:38.058Z,3.55
2023-01-18T12:20:52.980Z,3.20
2023-01-18T12:24:11.638Z,2.75
2023-01-18T12:27:24.679Z,3.17
2023-01-18T12:30:50.287Z,2.92
2023-01-18T12:34:00.498Z,3.30
2023-01-18T12:37:20.280Z,2.85
2023-01-18T12:40:40.920Z,2.60
2023-01-18T12:43:57.580Z,3.17
2023-01-18T12:47:14.369Z,5.13
2023-01-18T12:50:25.586Z,2.83
2023-01-18T12:53:44.879Z,3.45
2023-01-18T12:56:52.079Z,3.13
2023-01-18T12:59:59.380Z,2.65
2023-01-18T13:03:11.219Z,3.00
2023-01-18T13:06:16.097Z,2.92
2023-01-18T13:09:24.918Z,3.42
2023-01-18T13:12:29.501Z,4.45
2023-01-18T13:15:44.499Z,3.70
2023-01-18T13:18:56.459Z,3.78
2023-01-18T13:22:08.838Z,4.32
2023-01-18T13:25:34.063Z,3.88
2023-01-18T13:28:38.786Z,4.10
2023-01-18T13:31:42.700Z,3.30
2023-01-18T13:34:49.012Z,3.67
2023-01-18T13:37:56.250Z,8.85
2023-01-18T13:41:04.217Z,5.85
2023-01-18T13:44:27.071Z,4.20
2023-01-18T13:47:51.064Z,4.20
2023-01-18T13:50:54.927Z,4.63
2023-01-18T13:53:58.747Z,4.85
2023-01-18T13:57:18.319Z,4.32
2023-01-18T14:00:26.015Z,4.70
2023-01-18T14:03:32.626Z,4.00
2023-01-18T14:06:39.599Z,5.28
2023-01-18T14:09:46.959Z,5.72
2023-01-18T14:12:54.038Z,5.05
2023-01-18T14:16:00.480Z,5.20
2023-01-18T14:19:17.306Z,4.28
2023-01-18T14:22:33.197Z,3.85
2023-01-18T14:25:53.619Z,4.53
2023-01-18T14:29:02.125Z,4.57
2023-01-18T14:32:10.799Z,4.60
2023-01-18T14:35:20.978Z,4.18
2023-01-18T14:38:24.896Z,5.25
2023-01-18T14:41:29.610Z,4.70
2023-01-18T14:44:56.956Z,4.30
2023-01-18T14:48:04.342Z,4.70
2023-01-18T14:51:08.320Z,4.50
2023-01-18T14:54:18.816Z,5.83
2023-01-18T14:57:24.077Z,4.77
2023-01-18T15:00:29.499Z,4.30
2023-01-18T15:03:33.859Z,5.03
2023-01-18T15:06:41.469Z,5.00
2023-01-18T15:09:46.239Z,5.63
2023-01-18T15:12:53.839Z,5.00
2023-01-18T15:16:01.514Z,5.17
2023-01-18T15:19:05.641Z,5.60
2023-01-18T15:22:13.797Z,5.37
2023-01-18T15:25:21.858Z,5.47
2023-01-18T15:28:31.820Z,5.73
2023-01-18T15:31:46.347Z,5.10
2023-01-18T15:34:51.859Z,5.97
2023-01-18T15:37:55.661Z,5.63
2023-01-18T15:41:04.419Z,5.50
2023-01-18T15:44:20.538Z,4.33
2023-01-18T15:47:30.138Z,7.10
2023-01-18T15:50:37.706Z,5.80
2023-01-18T15:53:46.380Z,5.63
2023-01-18T15:56:50.798Z,5.33
2023-01-18T15:59:55.558Z,6.33
2023-01-18T16:03:02.996Z,6.43
2023-01-18T16:06:13.852Z,7.03
2023-01-18T16:09:23.513Z,8.43
2023-01-18T16:12:36.701Z,9.10
2023-01-18T16:15:40.941Z,8.87
2023-01-18T16:18:49.204Z,39.90
2023-01-18T16:21:54.776Z,9.47
2023-01-18T16:25:01.719Z,12.27
2023-01-18T16:28:06.414Z,23.87
2023-01-18T16:31:10.409Z,47.40
2023-01-18T16:34:27.499Z,24.37
2023-01-18T16:37:31.838Z,29.13
2023-01-18T16:40:39.398Z,36.53
2023-01-18T16:43:45.098Z,22.83
2023-01-18T16:46:49.738Z,16.47
2023-01-18T16:49:55.098Z,30.67
2023-01-18T16:52:59.154Z,29.47
2023-01-18T16:56:02.978Z,23.87
2023-01-18T16:59:17.329Z,17.33
2023-01-18T17:02:21.322Z,18.07
2023-01-18T17:05:27.878Z,12.23
2023-01-18T17:08:31.906Z,17.47
2023-01-18T17:11:35.690Z,18.43
2023-01-18T17:14:39.582Z,20.97
2023-01-18T17:17:44.139Z,16.87
2023-01-18T17:20:49.410Z,21.20
2023-01-18T17:23:53.400Z,16.83
2023-01-18T17:26:57.239Z,15.83
2023-01-18T17:30:01.085Z,10.83
2023-01-18T17:33:04.903Z,10.20
2023-01-18T17:36:10.818Z,9.60
2023-01-18T17:39:15.698Z,12.40
2023-01-18T17:42:29.701Z,17.63
2023-01-18T17:45:34.120Z,18.40
2023-01-18T17:48:38.101Z,18.70
2023-01-18T17:51:43.399Z,20.93
2023-01-18T17:54:47.159Z,18.33
2023-01-18T17:57:50.938Z,20.90
2023-01-18T18:00:55.573Z,23.83
2023-01-18T18:03:59.468Z,20.17
2023-01-18T18:07:04.827Z,21.43
2023-01-18T18:10:09.920Z,21.57
2023-01-18T18:13:13.845Z,20.37
2023-01-18T18:16:18.849Z,11.77
2023-01-18T18:19:23.298Z,14.30
2023-01-18T18:22:28.743Z,13.70
2023-01-18T18:25:32.842Z,13.17
2023-01-18T18:28:36.707Z,10.17
2023-01-18T18:31:40.747Z,12.57
2023-01-18T18:34:44.699Z,8.70
2023-01-18T18:37:50.178Z,7.43
2023-01-18T18:40:54.719Z,9.60
2023-01-18T18:43:58.759Z,9.90
2023-01-18T18:47:04.868Z,14.33
2023-01-18T18:50:10.626Z,9.33
2023-01-18T18:53:16.922Z,15.40
2023-01-18T18:56:22.030Z,11.90
2023-01-18T18:59:25.840Z,19.80
2023-01-18T19:02:29.610Z,12.40
2023-01-18T19:05:34.565Z,13.03
2023-01-18T19:08:40.147Z,17.53
2023-01-18T19:11:50.639Z,25.10
2023-01-18T19:14:58.663Z,47.77
2023-01-18T19:18:02.457Z,39.67
2023-01-18T19:21:06.767Z,47.67
2023-01-18T19:24:11.959Z,43.80
2023-01-18T19:27:15.882Z,26.60
2023-01-18T19:30:20.265Z,31.90
2023-01-18T19:33:24.218Z,37.23
2023-01-18T19:36:28.201Z,38.17
2023-01-18T19:39:35.131Z,39.13
2023-01-18T19:42:39.519Z,39.00
2023-01-18T19:45:43.379Z,41.27
2023-01-18T19:48:47.240Z,46.70
2023-01-18T19:51:52.040Z,49.77
2023-01-18T19:54:58.971Z,41.70
2023-01-18T19:58:03.128Z,39.33
2023-01-18T20:01:11.524Z,38.27
2023-01-18T20:04:15.750Z,44.80
2023-01-18T20:07:19.699Z,42.37
2023-01-18T20:10:24.963Z,40.37
2023-01-18T20:13:30.201Z,39.93
2023-01-18T20:16:34.245Z,41.23
2023-01-18T20:19:38.172Z,133.43
2023-01-18T20:22:45.281Z,43.30
2023-01-18T20:25:53.320Z,46.20
2023-01-18T20:28:57.299Z,133.37
2023-01-18T20:32:13.476Z,99.50
2023-01-18T20:35:19.191Z,52.77
2023-01-18T20:38:23.038Z,45.60
2023-01-18T20:41:28.340Z,27.27
2023-01-18T20:44:32.426Z,15.67
2023-01-18T20:47:36.358Z,18.33
2023-01-18T20:50:40.219Z,14.83
2023-01-18T20:53:44.179Z,17.67
2023-01-18T20:56:49.559Z,20.33
2023-01-18T20:59:53.380Z,17.57
2023-01-18T21:02:57.425Z,12.10
2023-01-18T21:06:01.378Z,13.67
2023-01-18T21:09:05.607Z,26.03
2023-01-18T21:12:10.901Z,8.90
2023-01-18T21:15:14.707Z,13.83
2023-01-18T21:18:18.545Z,15.50
2023-01-18T21:21:22.482Z,11.83
2023-01-18T21:24:26.239Z,15.03
2023-01-18T21:27:33.439Z,12.23
2023-01-18T21:30:37.121Z,13.30
2023-01-18T21:33:41.029Z,8.70
2023-01-18T21:36:45.120Z,8.83
2023-01-18T21:39:48.996Z,7.67
2023-01-18T21:43:11.723Z,9.13
2023-01-18T21:46:15.603Z,12.37
2023-01-18T21:50:03.966Z,10.43
2023-01-18T21:53:18.181Z,13.33
2023-01-18T21:56:22.418Z,9.97
2023-01-18T21:59:27.639Z,7.83
2023-01-18T22:02:31.686Z,8.03
2023-01-18T22:05:35.507Z,8.50
2023-01-18T22:08:39.378Z,8.23
2023-01-18T22:11:43.624Z,9.27
2023-01-18T22:14:49.202Z,8.60
2023-01-18T22:17:53.339Z,7.60
2023-01-18T22:20:57.684Z,7.97
2023-01-18T22:24:01.676Z,7.10
2023-01-18T22:27:06.142Z,6.97
2023-01-18T22:30:13.387Z,8.57
2023-01-18T22:33:17.423Z,7.40
2023-01-18T22:36:21.449Z,7.13
2023-01-18T22:39:25.669Z,7.23
2023-01-18T22:42:29.691Z,8.13
2023-01-18T22:45:35.082Z,7.80
2023-01-18T22:48:40.144Z,7.73
2023-01-18T22:51:45.070Z,8.20
2023-01-18T22:54:49.004Z,8.53
2023-01-18T22:57:53.008Z,8.23
2023-01-18T23:00:58.548Z,10.63
2023-01-18T23:04:04.787Z,7.80
2023-01-18T23:07:08.875Z,7.60
2023-01-18T23:10:12.863Z,6.67
2023-01-18T23:13:16.982Z,6.93
2023-01-18T23:16:39.501Z,5.83
2023-01-18T23:19:43.552Z,6.97
2023-01-18T23:22:47.686Z,6.63
2023-01-18T23:25:55.975Z,5.57
2023-01-18T23:28:59.982Z,6.17
2023-01-18T23:32:05.673Z,8.63
2023-01-18T23:35:10.222Z,7.17
2023-01-18T23:38:14.165Z,7.60
2023-01-18T23:41:35.262Z,6.83
2023-01-18T23:44:56.985Z,6.90
2023-01-18T23:48:25.242Z,7.00
2023-01-18T23:51:46.201Z,7.27
2023-01-18T23:54:50.162Z,6.13
2023-01-18T23:57:54.231Z,5.40
